Oasis of the Seas — C6XS7 — position and weather

sailwx.info

Track history (hours):
 
Tides and Currents Weather Stations Pressure Air Temp Water Temp Dewpoint Dewpoint Depression Visibility Wind Speed Wind Dir Waves Ship Positions

Oasis of the Seas

Last reported at 2017-Jun-22 22:09 UTC. Time now 2017-Jun-24 13:45 UTC.
Position N 18°08' W 063°20'.

Length 360 m; draft 9.3 m.

Type: Passenger vessel. MMSI: 311020600.

Date/timePositionNaut miles runAvg speedWind from/ knotsBaromVisibWave heightAir tempDewpointWater temp
2017-Jun-22 22:09N 18°08' W 063°20'320.5
2017-Jun-22 21:59N 18°05' W 063°17'1019.7
2017-Jun-22 21:29N 18°00' W 063°08'5 0.5
2017-Jun-22 11:30N 18°00' W 063°03'3 6.1
2017-Jun-22 11:00N 17°60' W 063°06'5 8.8
2017-Jun-22 10:26N 17°60' W 063°11'4 8.1
2017-Jun-22 10:00N 18°00' W 063°15'4 8.0
2017-Jun-22 09:30N 18°00' W 063°19'4 8.4
2017-Jun-22 09:00N 18°00' W 063°24'4 8.2
2017-Jun-22 08:30N 18°00' W 063°28'4 8.4
2017-Jun-22 08:00N 18°01' W 063°32'4 8.6
2017-Jun-22 07:30N 18°01' W 063°37'4 8.6
2017-Jun-22 07:00N 18°01' W 063°41'69 9.5
2017-Jun-21 23:44N 18°13' W 064°53'  
2017-Jun-15 05:03N 18°11' W 064°56'613.7
2017-Jun-15 04:39N 18°09' W 064°50'9213.6
2017-Jun-14 21:52N 18°00' W 063°14'614.0
2017-Jun-14 21:26N 18°00' W 063°07'4 0.4
2017-Jun-14 11:36N 18°00' W 063°03'1 4.2
2017-Jun-14 11:22N 18°00' W 063°04'615.3
2017-Jun-14 10:59N 18°02' W 063°10'816.9
2017-Jun-14 10:30N 18°06' W 063°17'918.1
2017-Jun-14 10:00N 18°12' W 063°25'  
Track history (hours):
 
Tides and Currents Weather Stations Pressure Air Temp Water Temp Dewpoint Dewpoint Depression Visibility Wind Speed Wind Dir Waves Ship Positions

Oasis of the Seas

Last reported at 2017-Jun-22 22:09 UTC. Time now 2017-Jun-24 13:45 UTC.
Position N 18°08' W 063°20'.

Length 360 m; draft 9.3 m.

Type: Passenger vessel. MMSI: 311020600.

Date/timePositionNaut miles runAvg speedWind from/ knotsBaromVisibWave heightAir tempDewpointWater temp
2017-Jun-22 22:09N 18°08' W 063°20'320.5
2017-Jun-22 21:59N 18°05' W 063°17'1019.7
2017-Jun-22 21:29N 18°00' W 063°08'5 0.5
2017-Jun-22 11:30N 18°00' W 063°03'3 6.1
2017-Jun-22 11:00N 17°60' W 063°06'5 8.8
2017-Jun-22 10:26N 17°60' W 063°11'4 8.1
2017-Jun-22 10:00N 18°00' W 063°15'4 8.0
2017-Jun-22 09:30N 18°00' W 063°19'4 8.4
2017-Jun-22 09:00N 18°00' W 063°24'4 8.2
2017-Jun-22 08:30N 18°00' W 063°28'4 8.4
2017-Jun-22 08:00N 18°01' W 063°32'4 8.6
2017-Jun-22 07:30N 18°01' W 063°37'4 8.6
2017-Jun-22 07:00N 18°01' W 063°41'69 9.5
2017-Jun-21 23:44N 18°13' W 064°53'  
2017-Jun-15 05:03N 18°11' W 064°56'613.7
2017-Jun-15 04:39N 18°09' W 064°50'9213.6
2017-Jun-14 21:52N 18°00' W 063°14'614.0
2017-Jun-14 21:26N 18°00' W 063°07'4 0.4
2017-Jun-14 11:36N 18°00' W 063°03'1 4.2
2017-Jun-14 11:22N 18°00' W 063°04'615.3
2017-Jun-14 10:59N 18°02' W 063°10'816.9
2017-Jun-14 10:30N 18°06' W 063°17'918.1
2017-Jun-14 10:00N 18°12' W 063°25'  

Dump ship's entire track history